sensor_id;sensor_type;location;lat;lon;timestamp;temperature;humidity
5850;DHT22;2951;47.712;9.400;2023-09-12T00:00:30;17.50;99.90
5850;DHT22;2951;47.712;9.400;2023-09-12T00:02:57;17.50;99.90
5850;DHT22;2951;47.712;9.400;2023-09-12T00:05:23;17.50;99.90
5850;DHT22;2951;47.712;9.400;2023-09-12T00:07:51;17.40;99.90
5850;DHT22;2951;47.712;9.400;2023-09-12T00:10:18;17.50;99.90
5850;DHT22;2951;47.712;9.400;2023-09-12T00:12:45;17.40;99.90
5850;DHT22;2951;47.712;9.400;2023-09-12T00:15:12;17.40;99.90
5850;DHT22;2951;47.712;9.400;2023-09-12T00:17:41;17.30;99.90
5850;DHT22;2951;47.712;9.400;2023-09-12T00:20:08;17.30;99.90
5850;DHT22;2951;47.712;9.400;2023-09-12T00:22:35;17.20;99.90
5850;DHT22;2951;47.712;9.400;2023-09-12T00:25:02;17.20;99.90
5850;DHT22;2951;47.712;9.400;2023-09-12T00:27:29;17.20;99.90
5850;DHT22;2951;47.712;9.400;2023-09-12T00:29:56;17.20;99.90
5850;DHT22;2951;47.712;9.400;2023-09-12T00:32:23;17.20;99.90
5850;DHT22;2951;47.712;9.400;2023-09-12T00:34:50;17.30;99.90
5850;DHT22;2951;47.712;9.400;2023-09-12T00:37:16;17.30;99.90
5850;DHT22;2951;47.712;9.400;2023-09-12T00:39:44;17.30;99.90
5850;DHT22;2951;47.712;9.400;2023-09-12T00:42:10;17.30;99.90
5850;DHT22;2951;47.712;9.400;2023-09-12T00:44:37;17.20;99.90
5850;DHT22;2951;47.712;9.400;2023-09-12T00:47:10;17.20;99.90
5850;DHT22;2951;47.712;9.400;2023-09-12T00:49:38;17.20;99.90
5850;DHT22;2951;47.712;9.400;2023-09-12T00:52:05;17.20;99.90
5850;DHT22;2951;47.712;9.400;2023-09-12T00:54:32;17.20;99.90
5850;DHT22;2951;47.712;9.400;2023-09-12T00:56:59;17.20;99.90
5850;DHT22;2951;47.712;9.400;2023-09-12T00:59:26;17.00;99.90
5850;DHT22;2951;47.712;9.400;2023-09-12T01:01:53;17.10;99.90
5850;DHT22;2951;47.712;9.400;2023-09-12T01:04:20;17.10;99.90
5850;DHT22;2951;47.712;9.400;2023-09-12T01:07:00;17.00;99.90
5850;DHT22;2951;47.712;9.400;2023-09-12T01:09:28;17.10;99.90
5850;DHT22;2951;47.712;9.400;2023-09-12T01:11:55;17.10;99.90
5850;DHT22;2951;47.712;9.400;2023-09-12T01:14:22;17.10;99.90
5850;DHT22;2951;47.712;9.400;2023-09-12T01:16:51;17.20;99.90
5850;DHT22;2951;47.712;9.400;2023-09-12T01:19:18;17.10;99.90
5850;DHT22;2951;47.712;9.400;2023-09-12T01:29:43;17.10;99.90
5850;DHT22;2951;47.712;9.400;2023-09-12T01:32:10;17.10;99.90
5850;DHT22;2951;47.712;9.400;2023-09-12T01:34:37;17.10;99.90
5850;DHT22;2951;47.712;9.400;2023-09-12T01:37:04;17.10;99.90
5850;DHT22;2951;47.712;9.400;2023-09-12T01:39:30;17.10;99.90
5850;DHT22;2951;47.712;9.400;2023-09-12T01:41:58;17.20;99.90
5850;DHT22;2951;47.712;9.400;2023-09-12T01:44:25;17.20;99.90
5850;DHT22;2951;47.712;9.400;2023-09-12T01:46:55;17.10;99.90
5850;DHT22;2951;47.712;9.400;2023-09-12T01:49:24;17.10;99.90
5850;DHT22;2951;47.712;9.400;2023-09-12T01:51:52;17.00;99.90
5850;DHT22;2951;47.712;9.400;2023-09-12T01:54:20;16.90;99.90
5850;DHT22;2951;47.712;9.400;2023-09-12T01:56:47;16.90;99.90
5850;DHT22;2951;47.712;9.400;2023-09-12T01:59:15;16.90;99.90
5850;DHT22;2951;47.712;9.400;2023-09-12T02:01:41;16.80;99.90
5850;DHT22;2951;47.712;9.400;2023-09-12T02:04:09;16.80;99.90
5850;DHT22;2951;47.712;9.400;2023-09-12T02:06:37;16.80;99.90
5850;DHT22;2951;47.712;9.400;2023-09-12T02:09:03;16.80;99.90
5850;DHT22;2951;47.712;9.400;2023-09-12T02:11:30;16.80;99.90
5850;DHT22;2951;47.712;9.400;2023-09-12T02:13:57;16.80;99.90
5850;DHT22;2951;47.712;9.400;2023-09-12T02:16:24;16.70;99.90
5850;DHT22;2951;47.712;9.400;2023-09-12T02:18:50;16.70;99.90
5850;DHT22;2951;47.712;9.400;2023-09-12T02:21:19;16.60;99.90
5850;DHT22;2951;47.712;9.400;2023-09-12T02:23:46;16.40;99.90
5850;DHT22;2951;47.712;9.400;2023-09-12T02:26:12;16.30;99.90
5850;DHT22;2951;47.712;9.400;2023-09-12T02:28:39;16.40;99.90
5850;DHT22;2951;47.712;9.400;2023-09-12T02:31:10;16.30;99.90
5850;DHT22;2951;47.712;9.400;2023-09-12T02:33:38;16.40;99.90
5850;DHT22;2951;47.712;9.400;2023-09-12T02:36:05;16.40;99.90
5850;DHT22;2951;47.712;9.400;2023-09-12T02:38:32;16.20;99.90
5850;DHT22;2951;47.712;9.400;2023-09-12T02:40:59;16.30;99.90
5850;DHT22;2951;47.712;9.400;2023-09-12T02:43:26;16.20;99.90
5850;DHT22;2951;47.712;9.400;2023-09-12T02:45:59;16.20;99.90
5850;DHT22;2951;47.712;9.400;2023-09-12T02:48:26;16.20;99.90
5850;DHT22;2951;47.712;9.400;2023-09-12T02:50:54;16.20;99.90
5850;DHT22;2951;47.712;9.400;2023-09-12T02:53:20;16.30;99.90
5850;DHT22;2951;47.712;9.400;2023-09-12T02:55:47;16.20;99.90
5850;DHT22;2951;47.712;9.400;2023-09-12T02:58:15;16.20;99.90
5850;DHT22;2951;47.712;9.400;2023-09-12T03:00:44;16.20;99.90
5850;DHT22;2951;47.712;9.400;2023-09-12T03:03:11;16.20;99.90
5850;DHT22;2951;47.712;9.400;2023-09-12T03:05:38;16.20;99.90
5850;DHT22;2951;47.712;9.400;2023-09-12T03:08:05;16.30;99.90
5850;DHT22;2951;47.712;9.400;2023-09-12T03:10:31;16.30;99.90
5850;DHT22;2951;47.712;9.400;2023-09-12T03:12:58;16.30;99.90
5850;DHT22;2951;47.712;9.400;2023-09-12T03:15:25;16.40;99.90
5850;DHT22;2951;47.712;9.400;2023-09-12T03:17:52;16.30;99.90
5850;DHT22;2951;47.712;9.400;2023-09-12T03:20:18;16.20;99.90
5850;DHT22;2951;47.712;9.400;2023-09-12T03:22:45;16.20;99.90
5850;DHT22;2951;47.712;9.400;2023-09-12T03:25:12;16.20;99.90
5850;DHT22;2951;47.712;9.400;2023-09-12T03:27:40;16.10;99.90
5850;DHT22;2951;47.712;9.400;2023-09-12T03:30:07;16.20;99.90
5850;DHT22;2951;47.712;9.400;2023-09-12T03:32:34;16.10;99.90
5850;DHT22;2951;47.712;9.400;2023-09-12T03:35:01;16.00;99.90
5850;DHT22;2951;47.712;9.400;2023-09-12T03:37:28;16.00;99.90
5850;DHT22;2951;47.712;9.400;2023-09-12T03:39:55;16.10;99.90
5850;DHT22;2951;47.712;9.400;2023-09-12T03:42:21;16.10;99.90
5850;DHT22;2951;47.712;9.400;2023-09-12T03:44:51;16.00;99.90
5850;DHT22;2951;47.712;9.400;2023-09-12T03:47:21;15.90;99.90
5850;DHT22;2951;47.712;9.400;2023-09-12T03:49:48;15.90;99.90
5850;DHT22;2951;47.712;9.400;2023-09-12T03:52:15;15.90;99.90
5850;DHT22;2951;47.712;9.400;2023-09-12T03:54:41;15.70;99.90
5850;DHT22;2951;47.712;9.400;2023-09-12T03:57:08;15.70;99.90
5850;DHT22;2951;47.712;9.400;2023-09-12T03:59:35;15.70;99.90
5850;DHT22;2951;47.712;9.400;2023-09-12T04:02:02;15.70;99.90
5850;DHT22;2951;47.712;9.400;2023-09-12T04:04:29;15.60;99.90
5850;DHT22;2951;47.712;9.400;2023-09-12T04:06:56;15.60;99.90
5850;DHT22;2951;47.712;9.400;2023-09-12T04:09:23;15.70;99.90
5850;DHT22;2951;47.712;9.400;2023-09-12T04:11:50;15.70;99.90
5850;DHT22;2951;47.712;9.400;2023-09-12T04:14:18;15.70;99.90
5850;DHT22;2951;47.712;9.400;2023-09-12T04:16:45;15.80;99.90
5850;DHT22;2951;47.712;9.400;2023-09-12T04:19:15;15.80;99.90
5850;DHT22;2951;47.712;9.400;2023-09-12T04:21:42;15.80;99.90
5850;DHT22;2951;47.712;9.400;2023-09-12T04:24:08;15.80;99.90
5850;DHT22;2951;47.712;9.400;2023-09-12T04:26:37;15.80;99.90
5850;DHT22;2951;47.712;9.400;2023-09-12T04:29:04;15.80;99.90
5850;DHT22;2951;47.712;9.400;2023-09-12T04:31:31;15.70;99.90
5850;DHT22;2951;47.712;9.400;2023-09-12T04:33:58;15.70;99.90
5850;DHT22;2951;47.712;9.400;2023-09-12T04:36:25;15.60;99.90
5850;DHT22;2951;47.712;9.400;2023-09-12T04:38:51;15.60;99.90
5850;DHT22;2951;47.712;9.400;2023-09-12T04:41:21;15.60;99.90
5850;DHT22;2951;47.712;9.400;2023-09-12T04:43:50;15.60;99.90
5850;DHT22;2951;47.712;9.400;2023-09-12T04:46:17;15.60;99.90
5850;DHT22;2951;47.712;9.400;2023-09-12T04:48:44;15.50;99.90
5850;DHT22;2951;47.712;9.400;2023-09-12T04:51:11;15.50;99.90
5850;DHT22;2951;47.712;9.400;2023-09-12T04:53:38;15.50;99.90
5850;DHT22;2951;47.712;9.400;2023-09-12T04:56:07;15.60;99.90
5850;DHT22;2951;47.712;9.400;2023-09-12T04:58:36;15.60;99.90
5850;DHT22;2951;47.712;9.400;2023-09-12T05:01:03;15.60;99.90
5850;DHT22;2951;47.712;9.400;2023-09-12T05:03:30;15.60;99.90
5850;DHT22;2951;47.712;9.400;2023-09-12T05:05:59;15.60;99.90
5850;DHT22;2951;47.712;9.400;2023-09-12T05:08:26;15.50;99.90
5850;DHT22;2951;47.712;9.400;2023-09-12T05:10:54;15.40;99.90
5850;DHT22;2951;47.712;9.400;2023-09-12T05:13:21;15.40;99.90
5850;DHT22;2951;47.712;9.400;2023-09-12T05:15:48;15.30;99.90
5850;DHT22;2951;47.712;9.400;2023-09-12T05:18:15;15.30;99.90
5850;DHT22;2951;47.712;9.400;2023-09-12T05:20:41;15.40;99.90
5850;DHT22;2951;47.712;9.400;2023-09-12T05:23:08;15.50;99.90
5850;DHT22;2951;47.712;9.400;2023-09-12T05:25:36;15.60;99.90
5850;DHT22;2951;47.712;9.400;2023-09-12T05:28:03;15.50;99.90
5850;DHT22;2951;47.712;9.400;2023-09-12T05:30:31;15.60;99.90
5850;DHT22;2951;47.712;9.400;2023-09-12T05:32:59;15.70;99.90
5850;DHT22;2951;47.712;9.400;2023-09-12T05:35:26;15.80;99.90
5850;DHT22;2951;47.712;9.400;2023-09-12T05:37:52;15.80;99.90
5850;DHT22;2951;47.712;9.400;2023-09-12T05:40:20;15.90;99.90
5850;DHT22;2951;47.712;9.400;2023-09-12T05:42:46;16.00;99.90
5850;DHT22;2951;47.712;9.400;2023-09-12T05:45:13;16.10;99.90
5850;DHT22;2951;47.712;9.400;2023-09-12T05:47:45;16.20;99.90
5850;DHT22;2951;47.712;9.400;2023-09-12T05:50:12;16.20;99.90
5850;DHT22;2951;47.712;9.400;2023-09-12T05:52:38;16.40;99.90
5850;DHT22;2951;47.712;9.400;2023-09-12T05:55:05;16.50;99.90
5850;DHT22;2951;47.712;9.400;2023-09-12T05:57:32;16.50;99.90
5850;DHT22;2951;47.712;9.400;2023-09-12T05:59:59;16.60;99.90
5850;DHT22;2951;47.712;9.400;2023-09-12T06:02:28;16.70;99.90
5850;DHT22;2951;47.712;9.400;2023-09-12T06:04:54;16.80;99.90
5850;DHT22;2951;47.712;9.400;2023-09-12T06:07:21;16.90;99.90
5850;DHT22;2951;47.712;9.400;2023-09-12T06:09:48;17.00;99.90
5850;DHT22;2951;47.712;9.400;2023-09-12T06:12:15;17.10;99.90
5850;DHT22;2951;47.712;9.400;2023-09-12T06:14:41;17.20;99.90
5850;DHT22;2951;47.712;9.400;2023-09-12T06:17:08;17.40;99.90
5850;DHT22;2951;47.712;9.400;2023-09-12T06:19:35;17.50;99.90
5850;DHT22;2951;47.712;9.400;2023-09-12T06:22:01;17.60;99.90
5850;DHT22;2951;47.712;9.400;2023-09-12T06:24:30;17.80;99.90
5850;DHT22;2951;47.712;9.400;2023-09-12T06:26:57;17.90;99.90
5850;DHT22;2951;47.712;9.400;2023-09-12T06:29:23;18.10;99.90
5850;DHT22;2951;47.712;9.400;2023-09-12T06:31:50;18.20;99.90
5850;DHT22;2951;47.712;9.400;2023-09-12T06:34:17;18.20;99.90
5850;DHT22;2951;47.712;9.400;2023-09-12T06:36:44;18.30;99.90
5850;DHT22;2951;47.712;9.400;2023-09-12T06:39:12;18.40;99.90
5850;DHT22;2951;47.712;9.400;2023-09-12T06:41:39;18.50;99.90
5850;DHT22;2951;47.712;9.400;2023-09-12T06:44:06;18.60;99.90
5850;DHT22;2951;47.712;9.400;2023-09-12T06:46:34;18.70;99.90
5850;DHT22;2951;47.712;9.400;2023-09-12T06:49:04;18.80;99.90
5850;DHT22;2951;47.712;9.400;2023-09-12T06:51:31;19.00;99.90
5850;DHT22;2951;47.712;9.400;2023-09-12T06:54:03;19.10;99.90
5850;DHT22;2951;47.712;9.400;2023-09-12T06:56:30;19.30;99.90
5850;DHT22;2951;47.712;9.400;2023-09-12T06:58:56;19.50;99.90
5850;DHT22;2951;47.712;9.400;2023-09-12T07:01:24;19.60;99.90
5850;DHT22;2951;47.712;9.400;2023-09-12T07:03:51;19.70;99.90
5850;DHT22;2951;47.712;9.400;2023-09-12T07:06:20;19.80;99.90
5850;DHT22;2951;47.712;9.400;2023-09-12T07:08:47;20.00;99.90
5850;DHT22;2951;47.712;9.400;2023-09-12T07:11:14;20.10;99.90
5850;DHT22;2951;47.712;9.400;2023-09-12T07:13:41;20.20;99.90
5850;DHT22;2951;47.712;9.400;2023-09-12T07:16:09;20.30;99.90
5850;DHT22;2951;47.712;9.400;2023-09-12T07:18:37;20.40;99.90
5850;DHT22;2951;47.712;9.400;2023-09-12T07:21:04;20.50;99.90
5850;DHT22;2951;47.712;9.400;2023-09-12T07:23:32;20.60;99.90
5850;DHT22;2951;47.712;9.400;2023-09-12T07:25:59;20.70;99.90
5850;DHT22;2951;47.712;9.400;2023-09-12T07:28:26;20.70;99.90
5850;DHT22;2951;47.712;9.400;2023-09-12T07:30:54;20.80;99.90
5850;DHT22;2951;47.712;9.400;2023-09-12T07:33:21;20.80;99.90
5850;DHT22;2951;47.712;9.400;2023-09-12T07:35:48;20.80;99.90
5850;DHT22;2951;47.712;9.400;2023-09-12T07:38:15;20.90;99.90
5850;DHT22;2951;47.712;9.400;2023-09-12T07:40:42;20.90;99.90
5850;DHT22;2951;47.712;9.400;2023-09-12T07:43:09;20.80;99.90
5850;DHT22;2951;47.712;9.400;2023-09-12T07:45:36;20.90;99.90
5850;DHT22;2951;47.712;9.400;2023-09-12T07:48:08;20.90;99.90
5850;DHT22;2951;47.712;9.400;2023-09-12T07:50:35;20.80;99.90
5850;DHT22;2951;47.712;9.400;2023-09-12T07:53:01;20.80;99.90
5850;DHT22;2951;47.712;9.400;2023-09-12T07:55:29;20.80;99.90
5850;DHT22;2951;47.712;9.400;2023-09-12T07:57:59;20.90;99.90
5850;DHT22;2951;47.712;9.400;2023-09-12T08:00:29;20.90;99.90
5850;DHT22;2951;47.712;9.400;2023-09-12T08:02:55;20.90;99.90
5850;DHT22;2951;47.712;9.400;2023-09-12T08:05:22;20.90;99.90
5850;DHT22;2951;47.712;9.400;2023-09-12T08:07:49;20.90;99.90
5850;DHT22;2951;47.712;9.400;2023-09-12T08:10:16;20.90;99.90
5850;DHT22;2951;47.712;9.400;2023-09-12T08:12:42;20.90;99.90
5850;DHT22;2951;47.712;9.400;2023-09-12T08:15:09;21.00;99.90
5850;DHT22;2951;47.712;9.400;2023-09-12T08:17:36;21.10;99.90
5850;DHT22;2951;47.712;9.400;2023-09-12T08:20:03;21.20;99.90
5850;DHT22;2951;47.712;9.400;2023-09-12T08:22:31;21.20;99.90
5850;DHT22;2951;47.712;9.400;2023-09-12T08:24:58;21.30;99.90
5850;DHT22;2951;47.712;9.400;2023-09-12T08:27:25;21.20;99.90
5850;DHT22;2951;47.712;9.400;2023-09-12T08:29:53;21.20;99.90
5850;DHT22;2951;47.712;9.400;2023-09-12T08:32:20;21.30;99.90
5850;DHT22;2951;47.712;9.400;2023-09-12T08:34:47;21.40;99.90
5850;DHT22;2951;47.712;9.400;2023-09-12T08:37:13;21.50;99.90
5850;DHT22;2951;47.712;9.400;2023-09-12T08:39:41;21.60;99.90
5850;DHT22;2951;47.712;9.400;2023-09-12T08:42:11;21.70;99.90
5850;DHT22;2951;47.712;9.400;2023-09-12T08:44:38;21.70;99.90
5850;DHT22;2951;47.712;9.400;2023-09-12T08:47:12;21.70;99.90
5850;DHT22;2951;47.712;9.400;2023-09-12T08:49:40;21.80;99.90
5850;DHT22;2951;47.712;9.400;2023-09-12T08:52:09;21.80;99.90
5850;DHT22;2951;47.712;9.400;2023-09-12T08:54:36;21.80;99.90
5850;DHT22;2951;47.712;9.400;2023-09-12T08:57:05;21.80;99.90
5850;DHT22;2951;47.712;9.400;2023-09-12T08:59:33;21.80;99.90
5850;DHT22;2951;47.712;9.400;2023-09-12T09:02:00;21.90;99.90
5850;DHT22;2951;47.712;9.400;2023-09-12T09:04:30;22.10;99.90
5850;DHT22;2951;47.712;9.400;2023-09-12T09:06:58;22.10;99.90
5850;DHT22;2951;47.712;9.400;2023-09-12T09:09:26;22.20;99.90
5850;DHT22;2951;47.712;9.400;2023-09-12T09:11:55;22.20;99.90
5850;DHT22;2951;47.712;9.400;2023-09-12T09:14:21;22.30;99.90
5850;DHT22;2951;47.712;9.400;2023-09-12T09:16:49;22.30;99.90
5850;DHT22;2951;47.712;9.400;2023-09-12T09:19:16;22.40;99.90
5850;DHT22;2951;47.712;9.400;2023-09-12T09:21:45;22.50;99.90
5850;DHT22;2951;47.712;9.400;2023-09-12T09:24:12;22.60;99.90
5850;DHT22;2951;47.712;9.400;2023-09-12T09:26:42;22.80;99.90
5850;DHT22;2951;47.712;9.400;2023-09-12T09:29:10;22.90;99.90
5850;DHT22;2951;47.712;9.400;2023-09-12T09:31:39;22.90;99.90
5850;DHT22;2951;47.712;9.400;2023-09-12T09:34:10;23.00;99.90
5850;DHT22;2951;47.712;9.400;2023-09-12T09:36:43;23.00;99.90
5850;DHT22;2951;47.712;9.400;2023-09-12T09:39:10;23.10;99.90
5850;DHT22;2951;47.712;9.400;2023-09-12T09:41:37;23.10;99.90
5850;DHT22;2951;47.712;9.400;2023-09-12T09:44:07;23.20;99.90
5850;DHT22;2951;47.712;9.400;2023-09-12T09:46:38;23.30;99.90
5850;DHT22;2951;47.712;9.400;2023-09-12T09:49:15;23.40;99.90
5850;DHT22;2951;47.712;9.400;2023-09-12T09:51:45;23.60;99.90
5850;DHT22;2951;47.712;9.400;2023-09-12T09:54:12;23.80;99.90
5850;DHT22;2951;47.712;9.400;2023-09-12T09:56:48;24.00;99.90
5850;DHT22;2951;47.712;9.400;2023-09-12T09:59:16;24.20;99.90
5850;DHT22;2951;47.712;9.400;2023-09-12T10:01:43;24.30;99.90
5850;DHT22;2951;47.712;9.400;2023-09-12T10:04:10;24.30;99.90
5850;DHT22;2951;47.712;9.400;2023-09-12T10:06:39;24.40;99.90
5850;DHT22;2951;47.712;9.400;2023-09-12T10:09:09;24.40;99.90
5850;DHT22;2951;47.712;9.400;2023-09-12T10:11:37;24.60;99.90
5850;DHT22;2951;47.712;9.400;2023-09-12T10:14:06;24.60;99.90
5850;DHT22;2951;47.712;9.400;2023-09-12T10:16:39;24.70;99.90
5850;DHT22;2951;47.712;9.400;2023-09-12T10:19:22;24.90;99.90
5850;DHT22;2951;47.712;9.400;2023-09-12T10:21:50;24.90;99.90
5850;DHT22;2951;47.712;9.400;2023-09-12T10:24:19;25.10;99.90
5850;DHT22;2951;47.712;9.400;2023-09-12T10:26:48;25.20;99.90
5850;DHT22;2951;47.712;9.400;2023-09-12T10:29:17;25.20;99.90
5850;DHT22;2951;47.712;9.400;2023-09-12T10:31:44;25.20;99.90
5850;DHT22;2951;47.712;9.400;2023-09-12T10:34:11;25.20;99.90
5850;DHT22;2951;47.712;9.400;2023-09-12T10:36:42;25.10;99.90
5850;DHT22;2951;47.712;9.400;2023-09-12T10:39:14;25.10;99.90
5850;DHT22;2951;47.712;9.400;2023-09-12T10:41:41;25.20;99.90
5850;DHT22;2951;47.712;9.400;2023-09-12T10:44:26;25.20;99.90
5850;DHT22;2951;47.712;9.400;2023-09-12T10:46:54;25.20;99.90
5850;DHT22;2951;47.712;9.400;2023-09-12T10:49:23;25.30;99.90
5850;DHT22;2951;47.712;9.400;2023-09-12T10:51:52;25.50;99.90
5850;DHT22;2951;47.712;9.400;2023-09-12T10:54:26;25.40;99.90
5850;DHT22;2951;47.712;9.400;2023-09-12T10:57:05;25.70;99.90
5850;DHT22;2951;47.712;9.400;2023-09-12T10:59:32;25.60;99.90
5850;DHT22;2951;47.712;9.400;2023-09-12T11:04:47;25.70;99.90
5850;DHT22;2951;47.712;9.400;2023-09-12T11:08:00;25.90;99.90
5850;DHT22;2951;47.712;9.400;2023-09-12T11:12:42;26.30;99.90
5850;DHT22;2951;47.712;9.400;2023-09-12T11:15:11;26.40;99.90
5850;DHT22;2951;47.712;9.400;2023-09-12T11:17:38;26.40;99.90
5850;DHT22;2951;47.712;9.400;2023-09-12T11:20:05;26.30;99.90
5850;DHT22;2951;47.712;9.400;2023-09-12T11:22:45;26.30;99.90
5850;DHT22;2951;47.712;9.400;2023-09-12T11:27:46;26.30;99.90
5850;DHT22;2951;47.712;9.400;2023-09-12T11:30:31;26.40;99.90
5850;DHT22;2951;47.712;9.400;2023-09-12T11:32:58;26.60;99.90
5850;DHT22;2951;47.712;9.400;2023-09-12T11:35:29;26.60;99.90
5850;DHT22;2951;47.712;9.400;2023-09-12T11:37:57;26.60;99.90
5850;DHT22;2951;47.712;9.400;2023-09-12T11:43:00;26.40;99.90
5850;DHT22;2951;47.712;9.400;2023-09-12T11:45:27;26.50;99.90
5850;DHT22;2951;47.712;9.400;2023-09-12T11:47:57;26.50;99.90
5850;DHT22;2951;47.712;9.400;2023-09-12T11:53:19;26.80;99.90
5850;DHT22;2951;47.712;9.400;2023-09-12T11:55:46;26.80;99.90
5850;DHT22;2951;47.712;9.400;2023-09-12T11:58:14;26.70;99.90
5850;DHT22;2951;47.712;9.400;2023-09-12T12:00:45;26.70;99.90
5850;DHT22;2951;47.712;9.400;2023-09-12T12:03:17;26.80;99.90
5850;DHT22;2951;47.712;9.400;2023-09-12T12:05:44;27.10;99.90
5850;DHT22;2951;47.712;9.400;2023-09-12T12:08:11;27.30;99.90
5850;DHT22;2951;47.712;9.400;2023-09-12T12:10:56;27.30;99.90
5850;DHT22;2951;47.712;9.400;2023-09-12T12:13:24;27.30;99.90
5850;DHT22;2951;47.712;9.400;2023-09-12T12:15:51;27.40;99.90
5850;DHT22;2951;47.712;9.400;2023-09-12T12:18:18;27.50;99.90
5850;DHT22;2951;47.712;9.400;2023-09-12T12:20:45;27.60;99.90
5850;DHT22;2951;47.712;9.400;2023-09-12T12:23:12;27.50;99.90
5850;DHT22;2951;47.712;9.400;2023-09-12T12:25:38;27.70;99.90
5850;DHT22;2951;47.712;9.400;2023-09-12T12:28:06;28.00;99.90
5850;DHT22;2951;47.712;9.400;2023-09-12T12:30:35;28.00;99.90
5850;DHT22;2951;47.712;9.400;2023-09-12T12:33:06;28.20;99.90
5850;DHT22;2951;47.712;9.400;2023-09-12T12:35:59;28.20;99.90
5850;DHT22;2951;47.712;9.400;2023-09-12T12:38:31;28.20;99.90
5850;DHT22;2951;47.712;9.400;2023-09-12T12:40:58;28.20;99.90
5850;DHT22;2951;47.712;9.400;2023-09-12T12:43:24;28.30;99.90
5850;DHT22;2951;47.712;9.400;2023-09-12T12:45:57;28.30;99.90
5850;DHT22;2951;47.712;9.400;2023-09-12T12:48:31;28.40;99.90
5850;DHT22;2951;47.712;9.400;2023-09-12T12:50:58;28.40;99.90
5850;DHT22;2951;47.712;9.400;2023-09-12T12:56:18;28.50;99.90
5850;DHT22;2951;47.712;9.400;2023-09-12T12:58:49;28.50;99.90
5850;DHT22;2951;47.712;9.400;2023-09-12T13:01:16;28.60;99.90
5850;DHT22;2951;47.712;9.400;2023-09-12T13:03:43;28.70;99.90
5850;DHT22;2951;47.712;9.400;2023-09-12T13:06:10;28.70;99.90
5850;DHT22;2951;47.712;9.400;2023-09-12T13:08:41;28.60;99.90
5850;DHT22;2951;47.712;9.400;2023-09-12T13:11:09;28.70;99.90
5850;DHT22;2951;47.712;9.400;2023-09-12T13:13:36;28.70;99.90
5850;DHT22;2951;47.712;9.400;2023-09-12T13:16:04;28.70;99.90
5850;DHT22;2951;47.712;9.400;2023-09-12T13:18:32;28.80;99.90
5850;DHT22;2951;47.712;9.400;2023-09-12T13:20:59;28.90;99.90
5850;DHT22;2951;47.712;9.400;2023-09-12T13:23:27;29.00;99.90
5850;DHT22;2951;47.712;9.400;2023-09-12T13:25:56;29.10;99.90
5850;DHT22;2951;47.712;9.400;2023-09-12T13:28:29;29.30;99.90
5850;DHT22;2951;47.712;9.400;2023-09-12T13:30:57;29.50;99.90
5850;DHT22;2951;47.712;9.400;2023-09-12T13:33:24;29.70;99.90
5850;DHT22;2951;47.712;9.400;2023-09-12T13:35:51;29.60;99.90
5850;DHT22;2951;47.712;9.400;2023-09-12T13:38:17;29.90;99.90
5850;DHT22;2951;47.712;9.400;2023-09-12T13:40:46;30.50;99.90
5850;DHT22;2951;47.712;9.400;2023-09-12T13:43:13;30.80;99.90
5850;DHT22;2951;47.712;9.400;2023-09-12T13:45:40;30.70;99.90
5850;DHT22;2951;47.712;9.400;2023-09-12T13:48:07;30.40;99.90
5850;DHT22;2951;47.712;9.400;2023-09-12T13:50:35;30.40;99.90
5850;DHT22;2951;47.712;9.400;2023-09-12T13:53:08;29.70;99.90
5850;DHT22;2951;47.712;9.400;2023-09-12T13:55:35;29.60;99.90
5850;DHT22;2951;47.712;9.400;2023-09-12T13:58:22;29.50;99.90
5850;DHT22;2951;47.712;9.400;2023-09-12T14:00:51;29.00;99.90
5850;DHT22;2951;47.712;9.400;2023-09-12T14:03:17;28.80;99.90
5850;DHT22;2951;47.712;9.400;2023-09-12T14:05:44;28.40;99.90
5850;DHT22;2951;47.712;9.400;2023-09-12T14:08:12;28.00;99.90
5850;DHT22;2951;47.712;9.400;2023-09-12T14:10:38;27.70;99.90
5850;DHT22;2951;47.712;9.400;2023-09-12T14:13:07;27.60;99.90
5850;DHT22;2951;47.712;9.400;2023-09-12T14:15:37;27.50;99.90
5850;DHT22;2951;47.712;9.400;2023-09-12T14:18:04;27.30;99.90
5850;DHT22;2951;47.712;9.400;2023-09-12T14:20:31;27.20;99.90
5850;DHT22;2951;47.712;9.400;2023-09-12T14:22:59;27.20;99.90
5850;DHT22;2951;47.712;9.400;2023-09-12T14:25:26;27.00;99.90
5850;DHT22;2951;47.712;9.400;2023-09-12T14:27:54;26.90;99.90
5850;DHT22;2951;47.712;9.400;2023-09-12T14:30:20;26.90;99.90
5850;DHT22;2951;47.712;9.400;2023-09-12T14:32:49;26.70;99.90
5850;DHT22;2951;47.712;9.400;2023-09-12T14:35:16;26.70;99.90
5850;DHT22;2951;47.712;9.400;2023-09-12T14:37:42;26.60;99.90
5850;DHT22;2951;47.712;9.400;2023-09-12T14:40:09;26.50;99.90
5850;DHT22;2951;47.712;9.400;2023-09-12T14:42:37;26.30;99.90
5850;DHT22;2951;47.712;9.400;2023-09-12T14:45:06;26.20;99.90
5850;DHT22;2951;47.712;9.400;2023-09-12T14:47:39;26.10;99.90
5850;DHT22;2951;47.712;9.400;2023-09-12T14:50:05;25.90;99.90
5850;DHT22;2951;47.712;9.400;2023-09-12T14:52:33;25.70;99.90
5850;DHT22;2951;47.712;9.400;2023-09-12T14:55:01;25.60;99.90
5850;DHT22;2951;47.712;9.400;2023-09-12T14:57:29;25.60;99.90
5850;DHT22;2951;47.712;9.400;2023-09-12T14:59:56;25.40;99.90
5850;DHT22;2951;47.712;9.400;2023-09-12T15:02:25;25.10;99.90
5850;DHT22;2951;47.712;9.400;2023-09-12T15:05:01;24.80;99.90
5850;DHT22;2951;47.712;9.400;2023-09-12T15:07:29;24.10;99.90
5850;DHT22;2951;47.712;9.400;2023-09-12T15:10:01;23.80;99.90
5850;DHT22;2951;47.712;9.400;2023-09-12T15:12:28;23.50;99.90
5850;DHT22;2951;47.712;9.400;2023-09-12T15:14:55;23.40;99.90
5850;DHT22;2951;47.712;9.400;2023-09-12T15:17:21;23.10;99.90
5850;DHT22;2951;47.712;9.400;2023-09-12T15:19:49;22.90;99.90
5850;DHT22;2951;47.712;9.400;2023-09-12T15:22:16;22.80;99.90
5850;DHT22;2951;47.712;9.400;2023-09-12T15:24:43;22.70;99.90
5850;DHT22;2951;47.712;9.400;2023-09-12T15:27:10;22.70;99.90
5850;DHT22;2951;47.712;9.400;2023-09-12T15:29:36;22.50;99.90
5850;DHT22;2951;47.712;9.400;2023-09-12T15:32:04;22.40;99.90
5850;DHT22;2951;47.712;9.400;2023-09-12T15:34:32;22.40;99.90
5850;DHT22;2951;47.712;9.400;2023-09-12T15:37:20;22.50;99.90
5850;DHT22;2951;47.712;9.400;2023-09-12T15:39:48;22.60;99.90
5850;DHT22;2951;47.712;9.400;2023-09-12T15:42:15;22.90;99.90
5850;DHT22;2951;47.712;9.400;2023-09-12T15:44:58;23.20;99.90
5850;DHT22;2951;47.712;9.400;2023-09-12T15:47:28;24.10;99.90
5850;DHT22;2951;47.712;9.400;2023-09-12T15:49:56;24.80;99.90
5850;DHT22;2951;47.712;9.400;2023-09-12T15:52:23;25.40;99.90
5850;DHT22;2951;47.712;9.400;2023-09-12T15:54:49;25.80;99.90
5850;DHT22;2951;47.712;9.400;2023-09-12T15:57:18;26.30;99.90
5850;DHT22;2951;47.712;9.400;2023-09-12T15:59:45;26.60;99.90
5850;DHT22;2951;47.712;9.400;2023-09-12T16:02:12;27.20;99.90
5850;DHT22;2951;47.712;9.400;2023-09-12T16:04:39;27.30;99.90
5850;DHT22;2951;47.712;9.400;2023-09-12T16:07:06;26.70;99.90
5850;DHT22;2951;47.712;9.400;2023-09-12T16:09:36;26.30;99.90
5850;DHT22;2951;47.712;9.400;2023-09-12T16:12:03;26.00;99.90
5850;DHT22;2951;47.712;9.400;2023-09-12T16:14:30;25.80;99.90
5850;DHT22;2951;47.712;9.400;2023-09-12T16:16:56;25.70;99.90
5850;DHT22;2951;47.712;9.400;2023-09-12T16:19:23;25.40;99.90
5850;DHT22;2951;47.712;9.400;2023-09-12T16:21:50;25.20;99.90
5850;DHT22;2951;47.712;9.400;2023-09-12T16:24:16;25.20;99.90
5850;DHT22;2951;47.712;9.400;2023-09-12T16:26:43;24.90;99.90
5850;DHT22;2951;47.712;9.400;2023-09-12T16:29:15;24.50;99.90
5850;DHT22;2951;47.712;9.400;2023-09-12T16:31:44;24.30;99.90